Terminal Aerodrome Forecast
Issued by NWS

Home | Current Version | Previous Version | Text Only | Print | Product List | Glossary On
Versions: 1 2 3 4 5 6 7 8 9 10 11 12
000
FTUS41 KPBZ 210533
TAFMGW
TAF
KMGW 210533Z 2106/2206 22005KT P6SM OVC025
     FM210800 23007KT P6SM OVC015
     FM211000 22007KT P6SM VCSH OVC015
     FM220300 21004KT 6SM -DZ OVC008=

USA.gov is the U.S. government's official web portal to all federal, state and local government web resources and services.